Time;durP1;ratioP1;P1;durP2;ratioP2;P2;SDS_P1;SDS_P2;PMS_P1;PMS_P2;Temp;Humidity;BMP_temperature;BMP_pressure;BME280_temperature;BME280_humidity;BME280_pressure;Samples;Min_cycle;Max_cycle;Signal;HPM_P1;HPM_P2
2022/01/14 01:37:54;;;;;;;38.53;24.30;;;6.20;64.50;;;;;;5506266;22;20492;-79
2022/01/14 01:40:25;;;;;;;33.90;23.50;;;6.20;64.60;;;;;;5032356;28;20022;-78
2022/01/14 01:42:51;;;;;;;38.85;26.10;;;6.20;64.60;;;;;;5015149;28;20068;-78
2022/01/14 01:45:22;;;;;;;39.13;25.80;;;6.20;64.80;;;;;;5027607;28;20037;-77
2022/01/14 01:47:51;;;;;;;36.85;25.77;;;6.10;64.90;;;;;;5032411;28;20397;-77
2022/01/14 01:50:27;;;;;;;37.78;25.02;;;6.10;65.00;;;;;;5031764;28;20034;-77
2022/01/14 01:52:53;;;;;;;38.53;26.83;;;6.20;65.10;;;;;;5032670;28;20493;-79
2022/01/14 01:55:22;;;;;;;34.75;26.23;;;6.10;65.10;;;;;;5014973;28;20042;-78
2022/01/14 01:57:52;;;;;;;34.20;25.65;;;6.10;65.00;;;;;;5032460;28;20037;-78
2022/01/14 02:00:21;;;;;;;37.58;25.42;;;6.00;64.90;;;;;;5032257;28;20038;-77
2022/01/14 02:02:49;;;;;;;32.65;24.70;;;6.00;64.80;;;;;;5027009;28;20425;-77
2022/01/14 02:05:16;;;;;;;37.85;25.08;;;6.00;64.60;;;;;;5031220;28;20051;-79
2022/01/14 02:07:43;;;;;;;34.60;25.00;;;5.90;64.90;;;;;;5032928;28;20044;-79
2022/01/14 02:10:11;;;;;;;36.08;25.27;;;5.90;65.10;;;;;;5031896;28;20045;-80
2022/01/14 02:12:45;;;;;;;35.58;25.05;;;5.90;65.00;;;;;;5012198;28;20045;-77
2022/01/14 02:15:15;;;;;;;41.88;24.52;;;5.90;64.70;;;;;;5011797;28;20034;-77
2022/01/14 02:18:14;;;;;;;31.90;23.77;;;5.90;64.50;;;;;;5028686;28;20067;-78
2022/01/14 02:23:17;;;;;;;34.95;23.80;;;6.00;64.40;;;;;;5032450;28;20987;-78
2022/01/14 02:25:45;;;;;;;34.53;24.77;;;5.90;64.30;;;;;;5031905;28;20065;-78
2022/01/14 02:28:16;;;;;;;37.10;25.48;;;5.80;64.40;;;;;;5014999;28;20046;-78
2022/01/14 02:30:42;;;;;;;;;;;5.90;64.50;;;;;;5031490;28;20096;-78
2022/01/14 02:33:09;;;;;;;34.22;23.50;;;5.80;64.60;;;;;;5020654;28;19948;-77
2022/01/14 02:35:37;;;;;;;39.28;25.00;;;5.70;64.80;;;;;;5031918;28;20120;-77
2022/01/14 02:38:03;;;;;;;33.30;23.70;;;5.80;65.00;;;;;;5029041;28;20092;-77
2022/01/14 02:40:29;;;;;;;34.92;24.88;;;5.70;65.10;;;;;;5028232;28;20089;-79
2022/01/14 02:42:59;;;;;;;33.10;25.08;;;5.70;65.20;;;;;;5016709;28;20541;-78
2022/01/14 02:45:28;;;;;;;36.72;26.00;;;5.70;65.40;;;;;;5031228;28;20034;-77
2022/01/14 02:47:54;;;;;;;34.42;24.92;;;5.70;65.60;;;;;;5032457;28;20037;-77
2022/01/14 02:50:22;;;;;;;36.22;25.30;;;5.60;65.70;;;;;;5031794;28;20646;-77
2022/01/14 02:55:20;;;;;;;33.67;24.48;;;5.70;66.10;;;;;;5031104;28;20101;-78
2022/01/14 02:57:49;;;;;;;36.28;25.27;;;5.60;66.20;;;;;;5011512;28;20049;-78
2022/01/14 03:00:17;;;;;;;36.38;25.63;;;5.60;66.30;;;;;;5032212;28;20049;-78
2022/01/14 03:02:45;;;;;;;35.60;25.58;;;5.60;66.40;;;;;;5029938;28;20136;-78
2022/01/14 03:05:12;;;;;;;36.80;24.75;;;5.60;66.30;;;;;;5032043;28;20052;-78
2022/01/14 03:07:39;;;;;;;34.88;25.05;;;5.60;66.30;;;;;;5029682;28;20042;-77
2022/01/14 03:10:05;;;;;;;31.95;24.30;;;5.70;66.50;;;;;;5031626;28;20501;-78
2022/01/14 03:12:31;;;;;;;37.20;25.85;;;5.70;66.50;;;;;;5030020;28;20120;-77
2022/01/14 03:14:57;;;;;;;37.75;25.67;;;5.70;66.70;;;;;;5023287;28;20541;-78
2022/01/14 03:17:23;;;;;;;35.78;23.52;;;5.70;66.60;;;;;;5032357;28;20125;-78
2022/01/14 03:19:49;;;;;;;39.75;25.70;;;5.60;66.80;;;;;;5027601;28;20121;-77
2022/01/14 03:22:20;;;;;;;40.65;24.90;;;5.70;66.90;;;;;;5029256;28;20037;-78
2022/01/14 03:27:12;;;;;;;41.05;26.60;;;5.60;67.10;;;;;;5035744;28;20104;-78
2022/01/14 03:29:38;;;;;;;38.30;25.52;;;5.60;67.30;;;;;;5034973;28;20124;-78
2022/01/14 03:32:04;;;;;;;37.00;25.38;;;5.50;67.40;;;;;;5034856;28;20069;-78
2022/01/14 03:34:31;;;;;;;35.20;25.27;;;5.50;67.50;;;;;;5031447;28;20041;-78
2022/01/14 03:36:57;;;;;;;36.28;25.48;;;5.50;67.60;;;;;;5035107;28;20026;-78
2022/01/14 03:39:23;;;;;;;38.30;25.95;;;5.50;68.00;;;;;;5029508;28;20045;-78
2022/01/14 03:41:49;;;;;;;36.03;26.70;;;5.40;67.80;;;;;;5021543;28;20061;-78
2022/01/14 03:44:15;;;;;;;38.92;28.23;;;5.40;67.70;;;;;;5029744;28;20381;-78
2022/01/14 03:46:41;;;;;;;40.78;26.05;;;5.30;68.40;;;;;;5034802;28;20493;-78
2022/01/14 03:49:07;;;;;;;37.45;24.92;;;5.30;68.10;;;;;;5034365;28;20038;-78
2022/01/14 03:51:33;;;;;;;37.03;24.90;;;5.30;68.20;;;;;;5026932;28;20050;-78
2022/01/14 03:53:58;;;;;;;35.85;25.58;;;5.40;68.30;;;;;;5027497;28;20029;-78
2022/01/14 03:56:25;;;;;;;36.10;24.90;;;5.40;68.10;;;;;;5034758;28;20034;-78
2022/01/14 03:58:53;;;;;;;34.80;25.17;;;5.40;68.10;;;;;;5035080;28;20033;-78
2022/01/14 04:01:19;;;;;;;33.80;25.60;;;5.40;68.10;;;;;;5014084;28;20385;-79
2022/01/14 04:03:47;;;;;;;32.08;23.50;;;5.40;68.10;;;;;;5034753;28;20025;-79
2022/01/14 04:06:13;;;;;;;37.03;24.23;;;5.40;68.20;;;;;;5034383;28;20048;-78
2022/01/14 04:08:39;;;;;;;34.47;24.85;;;5.30;68.40;;;;;;5034706;28;20485;-78
2022/01/14 04:11:05;;;;;;;33.83;24.52;;;5.40;68.60;;;;;;5027639;28;20036;-78
2022/01/14 04:13:44;;;;;;;39.30;25.48;;;5.30;68.60;;;;;;5025635;28;20034;-78
2022/01/14 04:16:11;;;;;;;40.80;25.23;;;5.30;68.80;;;;;;5025579;28;20045;-78
2022/01/14 04:18:37;;;;;;;33.97;23.67;;;5.30;68.90;;;;;;5024615;28;20404;-78
2022/01/14 04:21:02;;;;;;;31.63;23.42;;;5.20;69.10;;;;;;5034003;28;20037;-79
2022/01/14 04:23:28;;;;;;;35.15;25.40;;;5.20;69.10;;;;;;5029919;28;20040;-79
2022/01/14 04:25:55;;;;;;;36.58;26.00;;;5.20;69.10;;;;;;5034844;28;20489;-79
2022/01/14 04:28:23;;;;;;;38.42;24.27;;;5.20;69.10;;;;;;5033914;28;20030;-78
2022/01/14 04:30:54;;;;;;;36.72;25.55;;;5.20;69.00;;;;;;5024611;28;20062;-78
2022/01/14 04:33:23;;;;;;;35.47;24.63;;;5.20;69.10;;;;;;5015582;28;20037;-78
2022/01/14 04:35:49;;;;;;;34.17;23.58;;;5.20;69.00;;;;;;5033492;28;20099;-78
2022/01/14 04:38:15;;;;;;;40.58;25.35;;;5.20;68.70;;;;;;5034114;28;20049;-78
2022/01/14 04:40:41;;;;;;;36.03;26.38;;;5.20;68.70;;;;;;5034294;28;20473;-78
2022/01/14 04:43:07;;;;;;;37.10;26.52;;;5.20;68.80;;;;;;5033574;28;20044;-79
2022/01/14 04:48:05;;;;;;;34.70;24.88;;;5.30;69.30;;;;;;5026650;28;20076;-77
2022/01/14 04:50:31;;;;;;;37.42;25.00;;;5.30;69.00;;;;;;5032715;28;20437;-78
2022/01/14 04:52:56;;;;;;;35.78;24.20;;;5.30;68.30;;;;;;5032757;28;20101;-77
2022/01/14 04:55:24;;;;;;;36.35;25.30;;;5.30;68.10;;;;;;5027628;28;20065;-77
2022/01/14 04:57:50;;;;;;;35.50;23.90;;;5.30;68.10;;;;;;5030205;28;20067;-78
2022/01/14 05:00:26;;;;;;;39.50;25.83;;;5.20;68.10;;;;;;5032813;28;20053;-78
2022/01/14 05:02:54;;;;;;;37.97;25.85;;;5.20;68.30;;;;;;5016270;28;20091;-77
2022/01/14 05:05:22;;;;;;;34.47;26.02;;;5.10;68.30;;;;;;5020829;28;20129;-78
2022/01/14 05:07:49;;;;;;;35.95;24.90;;;5.10;68.30;;;;;;5024050;28;20414;-77
2022/01/14 05:10:21;;;;;;;40.90;24.30;;;5.10;68.40;;;;;;5032329;28;20405;-78
2022/01/14 05:12:47;;;;;;;35.00;25.30;;;5.10;68.40;;;;;;5026538;28;20069;-78
2022/01/14 05:15:15;;;;;;;34.08;24.05;;;5.10;68.30;;;;;;5032677;28;20045;-78
2022/01/14 05:17:41;;;;;;;40.38;25.48;;;5.10;68.10;;;;;;5025188;28;20034;-78
2022/01/14 05:20:08;;;;;;;38.00;25.20;;;5.10;68.00;;;;;;5026099;28;20069;-78
2022/01/14 05:22:34;;;;;;;34.70;25.20;;;5.10;68.10;;;;;;5030402;28;20473;-78
2022/01/14 05:24:59;;;;;;;34.05;23.02;;;5.10;67.90;;;;;;5030686;28;20137;-78
2022/01/14 05:27:25;;;;;;;34.35;24.25;;;5.00;68.00;;;;;;5033293;28;20038;-78
2022/01/14 05:29:51;;;;;;;38.00;26.02;;;5.00;67.90;;;;;;5032964;28;20056;-77
2022/01/14 05:32:16;;;;;;;36.72;25.55;;;5.00;67.80;;;;;;5033207;28;20092;-78
2022/01/14 05:34:45;;;;;;;43.30;31.15;;;5.00;67.70;;;;;;5012820;28;20136;-77
2022/01/14 05:37:12;;;;;;;38.65;25.20;;;4.90;67.70;;;;;;5029007;28;20030;-77
2022/01/14 05:39:38;;;;;;;35.17;25.75;;;4.80;68.10;;;;;;5008615;28;20382;-77
2022/01/14 05:42:05;;;;;;;36.13;24.55;;;4.80;68.10;;;;;;5030752;28;20053;-77
2022/01/14 05:44:31;;;;;;;38.60;25.35;;;4.80;68.00;;;;;;5031695;28;20037;-77
2022/01/14 05:46:59;;;;;;;37.75;25.27;;;4.90;68.00;;;;;;5032689;28;20041;-77
2022/01/14 05:49:26;;;;;;;38.10;25.52;;;4.90;67.80;;;;;;5032991;28;20057;-77
2022/01/14 05:51:52;;;;;;;36.65;25.25;;;5.00;67.80;;;;;;5026385;28;20037;-77
2022/01/14 05:54:19;;;;;;;35.78;25.15;;;5.10;67.80;;;;;;5023512;28;20052;-77
2022/01/14 05:56:45;;;;;;;41.25;26.27;;;5.10;67.70;;;;;;5029764;28;20544;-79
2022/01/14 05:59:11;;;;;;;34.60;24.65;;;5.10;67.40;;;;;;5032400;28;20034;-78
2022/01/14 06:01:37;;;;;;;37.90;26.38;;;5.10;67.40;;;;;;5029795;28;20471;-78
2022/01/14 06:04:04;;;;;;;36.50;25.25;;;5.10;67.40;;;;;;5031060;28;20105;-78
2022/01/14 06:06:30;;;;;;;35.42;25.10;;;5.20;67.40;;;;;;5032456;28;20114;-79
2022/01/14 06:08:56;;;;;;;37.47;25.38;;;5.10;67.50;;;;;;5023608;28;20029;-78
2022/01/14 06:11:23;;;;;;;33.38;24.08;;;5.10;67.80;;;;;;5011816;28;20045;-77
2022/01/14 06:13:49;;;;;;;38.40;26.05;;;5.10;67.80;;;;;;5030770;28;20095;-77
2022/01/14 06:16:15;;;;;;;36.22;24.60;;;5.20;68.00;;;;;;5030588;28;20046;-77
2022/01/14 06:18:41;;;;;;;34.47;23.60;;;5.20;68.00;;;;;;5031794;28;20092;-77
2022/01/14 06:21:07;;;;;;;35.67;24.25;;;5.10;67.90;;;;;;5028882;28;20505;-77
2022/01/14 06:23:33;;;;;;;34.88;23.55;;;5.10;68.00;;;;;;5031360;28;20063;-77
2022/01/14 06:25:59;;;;;;;35.72;23.48;;;5.20;68.00;;;;;;5032128;28;20080;-78
2022/01/14 06:28:25;;;;;;;34.33;24.35;;;5.20;68.00;;;;;;5032327;28;20069;-83
2022/01/14 06:30:51;;;;;;;39.15;25.10;;;5.30;68.20;;;;;;5030560;28;20046;-77
2022/01/14 06:33:16;;;;;;;34.80;23.67;;;5.30;68.10;;;;;;5029982;28;20041;-77
2022/01/14 06:35:42;;;;;;;35.95;23.70;;;5.30;68.00;;;;;;5028904;28;20069;-76
2022/01/14 06:38:11;;;;;;;36.85;25.58;;;5.30;67.90;;;;;;5029212;28;20072;-77
2022/01/14 06:40:37;;;;;;;33.08;24.20;;;5.30;67.90;;;;;;5031452;28;20594;-77
2022/01/14 06:43:04;;;;;;;35.50;24.02;;;5.40;67.70;;;;;;5007524;28;20079;-78
2022/01/14 06:45:30;;;;;;;33.03;24.50;;;5.40;67.70;;;;;;5027971;28;20037;-77
2022/01/14 06:47:56;;;;;;;37.28;25.45;;;5.40;67.70;;;;;;5030125;28;20037;-78
2022/01/14 06:50:22;;;;;;;35.60;23.88;;;5.40;67.50;;;;;;5027593;28;20054;-78
2022/01/14 06:52:48;;;;;;;35.45;25.52;;;5.40;67.20;;;;;;5035121;28;20037;-79
2022/01/14 06:55:14;;;;;;;35.55;25.13;;;5.40;67.20;;;;;;5046410;28;20045;-77
2022/01/14 06:57:40;;;;;;;36.85;23.50;;;5.40;67.20;;;;;;5050148;28;20038;-78
2022/01/14 07:00:08;;;;;;;36.30;25.42;;;5.40;67.90;;;;;;5042576;28;20046;-78
2022/01/14 07:02:34;;;;;;;33.85;24.38;;;5.40;67.50;;;;;;5030395;28;20048;-79
2022/01/14 07:05:00;;;;;;;35.67;24.25;;;5.40;68.20;;;;;;5034699;28;20041;-80
2022/01/14 07:07:25;;;;;;;38.47;26.02;;;5.30;68.00;;;;;;5016237;28;20116;-80
2022/01/14 07:09:57;;;;;;;32.92;25.02;;;5.40;67.90;;;;;;5036287;28;20492;-83
2022/01/14 07:12:29;;;;;;;35.55;25.40;;;5.40;67.80;;;;;;5035927;28;20041;-79
2022/01/14 07:14:56;;;;;;;36.08;26.02;;;5.40;68.00;;;;;;5033026;28;20429;-79
2022/01/14 07:17:23;;;;;;;37.97;25.40;;;5.40;67.90;;;;;;5016848;28;20052;-79
2022/01/14 07:19:51;;;;;;;37.00;26.88;;;5.40;67.70;;;;;;5034831;28;20049;-79
2022/01/14 07:22:17;;;;;;;36.92;26.48;;;5.40;67.90;;;;;;5029000;28;20057;-79
2022/01/14 07:24:43;;;;;;;37.13;26.30;;;5.30;68.10;;;;;;5029418;28;20445;-79
2022/01/14 07:27:09;;;;;;;35.97;25.73;;;5.30;68.30;;;;;;5035349;28;20401;-79
2022/01/14 07:29:34;;;;;;;39.40;27.63;;;5.20;68.80;;;;;;5033012;28;20424;-79
2022/01/14 07:32:00;;;;;;;35.58;25.95;;;5.20;68.70;;;;;;5035616;28;20104;-79
2022/01/14 07:34:26;;;;;;;35.45;26.23;;;5.20;68.90;;;;;;5035987;28;20061;-79
2022/01/14 07:36:52;;;;;;;39.00;25.88;;;5.20;68.80;;;;;;5035842;28;20034;-79
2022/01/14 07:39:19;;;;;;;37.03;25.73;;;5.20;68.80;;;;;;5028344;28;20050;-79
2022/01/14 07:41:48;;;;;;;37.42;27.63;;;5.10;69.00;;;;;;5016101;28;20088;-78
2022/01/14 07:44:14;;;;;;;36.78;26.65;;;5.00;69.20;;;;;;5024176;28;20068;-79
2022/01/14 07:46:40;;;;;;;41.75;29.65;;;5.00;69.20;;;;;;5035358;28;20041;-78
2022/01/14 07:49:06;;;;;;;40.95;29.30;;;5.10;69.40;;;;;;5035527;28;20528;-78
2022/01/14 07:51:32;;;;;;;42.15;29.95;;;5.00;69.70;;;;;;5034976;28;20049;-78
2022/01/14 07:53:58;;;;;;;36.58;27.08;;;5.10;69.20;;;;;;5033480;28;20037;-78
2022/01/14 07:56:24;;;;;;;37.60;27.67;;;5.00;69.20;;;;;;5030459;28;20050;-78
2022/01/14 07:58:50;;;;;;;40.88;26.95;;;5.00;69.50;;;;;;5031006;28;20029;-78
2022/01/14 08:01:15;;;;;;;36.95;26.52;;;5.00;69.50;;;;;;5027587;28;20033;-78
2022/01/14 08:03:41;;;;;;;39.60;27.95;;;5.00;69.70;;;;;;5035240;28;20473;-78
2022/01/14 08:06:10;;;;;;;38.30;27.35;;;5.00;69.70;;;;;;5035646;28;20470;-79
2022/01/14 08:08:37;;;;;;;38.97;27.25;;;5.10;69.70;;;;;;5035110;28;20076;-78
2022/01/14 08:11:02;;;;;;;43.78;31.73;;;5.20;69.70;;;;;;5032001;28;20025;-78
2022/01/14 08:13:28;;;;;;;37.85;26.58;;;5.20;69.20;;;;;;5034516;28;20474;-78
2022/01/14 08:15:55;;;;;;;38.75;27.15;;;5.00;69.10;;;;;;5034900;28;20080;-77
2022/01/14 08:18:21;;;;;;;34.38;25.83;;;5.10;69.30;;;;;;5034619;28;20116;-80
2022/01/14 08:20:47;;;;;;;35.28;26.25;;;5.10;69.00;;;;;;5034619;28;20371;-79
2022/01/14 08:23:13;;;;;;;38.75;27.35;;;5.20;69.00;;;;;;5016926;28;20048;-80
2022/01/14 08:25:39;;;;;;;36.83;26.23;;;5.30;68.80;;;;;;5034435;28;20037;-81
2022/01/14 08:28:05;;;;;;;37.63;25.50;;;5.30;68.50;;;;;;5035752;28;20037;-81
2022/01/14 08:30:30;;;;;;;46.92;31.98;;;5.40;68.40;;;;;;5037124;28;20397;-81
2022/01/14 08:32:56;;;;;;;38.83;27.60;;;5.30;67.20;;;;;;5027206;28;20056;-80
2022/01/14 08:35:23;;;;;;;42.65;27.35;;;5.20;67.50;;;;;;5040242;28;20053;-80
2022/01/14 08:37:49;;;;;;;36.28;24.92;;;5.20;67.60;;;;;;5034302;28;20049;-80
2022/01/14 08:40:14;;;;;;;32.05;22.70;;;5.20;67.90;;;;;;5036874;28;20056;-80
2022/01/14 08:42:40;;;;;;;38.67;26.13;;;5.30;67.70;;;;;;5036667;28;20041;-80
2022/01/14 08:45:07;;;;;;;37.90;24.63;;;5.20;67.10;;;;;;5034826;28;20397;-80
2022/01/14 08:47:33;;;;;;;48.88;34.47;;;5.30;67.50;;;;;;5034948;28;20041;-80
2022/01/14 08:50:01;;;;;;;51.35;36.58;;;5.30;66.60;;;;;;5031315;28;20045;-80
2022/01/14 08:52:27;;;;;;;40.03;28.90;;;5.00;66.70;;;;;;5037646;28;20501;-78
2022/01/14 08:54:53;;;;;;;41.33;28.58;;;5.00;67.20;;;;;;5033759;28;20160;-78
2022/01/14 08:57:18;;;;;;;42.60;28.90;;;5.00;67.00;;;;;;5016612;28;20498;-80
2022/01/14 08:59:44;;;;;;;45.60;33.50;;;5.00;67.20;;;;;;5024723;28;20466;-79
2022/01/14 09:02:10;;;;;;;35.63;23.98;;;5.10;67.40;;;;;;5033571;28;20044;-79
2022/01/14 09:04:36;;;;;;;33.88;25.13;;;5.30;67.60;;;;;;5034448;28;20096;-79
2022/01/14 09:07:02;;;;;;;48.17;34.85;;;5.50;67.10;;;;;;5018145;28;20457;-79
2022/01/14 09:09:27;;;;;;;38.35;27.33;;;5.40;66.20;;;;;;4997270;28;20076;-79
2022/01/14 09:11:55;;;;;;;43.00;31.30;;;5.40;67.10;;;;;;5023344;28;20041;-78
2022/01/14 09:14:21;;;;;;;39.40;27.35;;;5.40;66.80;;;;;;5016307;28;20069;-79
2022/01/14 09:16:47;;;;;;;47.92;33.17;;;5.40;66.50;;;;;;5033775;28;20064;-79
2022/01/14 09:19:14;;;;;;;49.35;31.77;;;5.50;66.00;;;;;;5013517;28;20049;-79
2022/01/14 09:21:42;;;;;;;39.20;25.45;;;5.50;66.00;;;;;;5022051;28;20053;-79
2022/01/14 09:24:08;;;;;;;46.40;33.55;;;5.70;66.00;;;;;;5033833;28;20049;-79
2022/01/14 09:26:36;;;;;;;37.50;26.77;;;5.60;65.70;;;;;;5017057;28;20034;-78
2022/01/14 09:29:06;;;;;;;45.53;34.17;;;5.80;65.80;;;;;;5034026;28;20049;-79
2022/01/14 09:31:32;;;;;;;36.35;26.17;;;5.80;65.30;;;;;;5022279;28;20132;-79
2022/01/14 09:33:58;;;;;;;45.75;33.53;;;6.00;65.50;;;;;;5043889;28;20052;-79
2022/01/14 09:36:25;;;;;;;35.42;26.27;;;6.10;64.70;;;;;;5053536;28;20029;-79
2022/01/14 09:38:50;;;;;;;39.92;25.90;;;6.20;64.80;;;;;;5047410;28;20049;-78
2022/01/14 09:41:18;;;;;;;36.38;26.90;;;6.50;64.70;;;;;;5015041;28;20041;-79
2022/01/14 09:43:44;;;;;;;38.40;27.17;;;6.80;64.40;;;;;;5033444;28;20037;-79
2022/01/14 09:46:11;;;;;;;37.63;26.30;;;7.10;63.90;;;;;;5032732;28;20501;-79
2022/01/14 09:48:38;;;;;;;37.28;27.77;;;7.30;63.30;;;;;;5033123;28;20037;-79
2022/01/14 09:51:03;;;;;;;38.78;29.30;;;7.50;60.90;;;;;;5021051;28;20050;-79
2022/01/14 09:53:31;;;;;;;46.72;35.38;;;7.60;60.00;;;;;;5033761;28;20511;-79
2022/01/14 09:55:57;;;;;;;33.80;26.27;;;7.50;58.20;;;;;;5033366;28;20045;-79
2022/01/14 09:58:29;;;;;;;35.28;27.48;;;7.50;60.50;;;;;;5032458;28;20041;-80
2022/01/14 10:01:14;;;;;;;39.50;27.88;;;7.60;60.30;;;;;;5033558;28;20608;-79
2022/01/14 10:03:59;;;;;;;38.50;27.38;;;7.80;59.70;;;;;;5019986;28;20116;-80
2022/01/14 10:07:05;;;;;;;35.53;26.05;;;8.10;60.60;;;;;;5027653;28;20041;-79
2022/01/14 10:09:35;;;;;;;35.42;24.00;;;8.30;59.80;;;;;;4998707;28;20124;-77
2022/01/14 10:12:08;;;;;;;36.83;26.75;;;8.50;60.60;;;;;;5021342;28;20049;-78
2022/01/14 10:14:41;;;;;;;35.20;27.02;;;8.80;64.30;;;;;;5027476;28;20247;-78
2022/01/14 10:17:09;;;;;;;36.78;28.20;;;8.90;59.70;;;;;;5030330;28;20045;-78
2022/01/14 10:19:44;;;;;;;39.90;29.33;;;9.10;61.00;;;;;;5032265;28;20036;-78
2022/01/14 10:22:26;;;;;;;39.92;30.42;;;9.20;60.20;;;;;;5029619;28;20088;-78
2022/01/14 10:24:59;;;;;;;44.72;30.40;;;9.40;59.20;;;;;;5014073;28;20478;-78
2022/01/14 10:27:35;;;;;;;41.15;31.88;;;9.40;58.20;;;;;;5031972;28;20041;-78
2022/01/14 10:30:13;;;;;;;41.58;30.58;;;9.50;58.30;;;;;;5004882;28;20442;-76
2022/01/14 10:32:41;;;;;;;40.45;30.52;;;9.60;58.20;;;;;;5028793;28;20485;-78
2022/01/14 10:35:09;;;;;;;50.28;34.88;;;9.70;57.20;;;;;;5022933;28;20033;-77
2022/01/14 10:37:36;;;;;;;41.22;34.00;;;9.60;53.20;;;;;;5016664;28;20049;-76
2022/01/14 10:40:05;;;;;;;41.88;33.85;;;9.70;54.80;;;;;;5025744;28;20034;-78
2022/01/14 10:42:34;;;;;;;45.97;34.28;;;9.90;54.70;;;;;;5032867;28;20415;-77
2022/01/14 10:45:19;;;;;;;45.42;33.90;;;9.90;54.10;;;;;;5032110;28;20041;-81
2022/01/14 10:48:03;;;;;;;44.92;31.70;;;10.00;55.40;;;;;;5029718;28;20043;-80
2022/01/14 10:50:45;;;;;;;43.40;31.90;;;10.30;55.30;;;;;;5031154;28;20117;-78
2022/01/14 10:53:16;;;;;;;42.97;32.28;;;10.50;54.30;;;;;;5032194;28;20041;-78
2022/01/14 10:55:47;;;;;;;39.03;30.80;;;10.60;51.90;;;;;;5032878;28;20033;-80
2022/01/14 10:58:17;;;;;;;40.13;31.90;;;10.80;53.90;;;;;;5032767;28;20034;-81
2022/01/14 11:00:55;;;;;;;36.33;30.25;;;11.00;53.70;;;;;;5032593;28;20513;-81
2022/01/14 11:03:37;;;;;;;40.25;30.60;;;11.30;53.50;;;;;;5032570;28;20042;-81
2022/01/14 11:06:22;;;;;;;39.58;29.80;;;11.40;51.80;;;;;;5032675;28;20477;-80
2022/01/14 11:09:03;;;;;;;38.28;30.38;;;11.60;51.90;;;;;;5032797;28;20045;-80
2022/01/14 11:11:30;;;;;;;41.97;33.17;;;11.70;48.50;;;;;;5014709;28;20041;-80
2022/01/14 11:13:56;;;;;;;36.45;29.83;;;11.70;47.50;;;;;;5025974;28;20042;-80
2022/01/14 11:16:22;;;;;;;37.63;29.75;;;11.80;50.00;;;;;;5012978;28;20040;-80
2022/01/14 11:18:49;;;;;;;38.08;30.95;;;12.00;50.10;;;;;;5029643;28;20069;-80
2022/01/14 11:24:04;;;;;;;47.65;36.20;;;12.50;50.10;;;;;;5033008;28;20044;-80
2022/01/14 11:26:35;;;;;;;48.28;35.33;;;12.40;48.10;;;;;;5033020;28;20032;-80
2022/01/14 11:29:16;;;;;;;36.58;30.92;;;12.40;46.80;;;;;;5032911;28;20109;-80
2022/01/14 11:31:43;;;;;;;35.58;28.67;;;12.20;47.60;;;;;;5015097;28;20485;-80
2022/01/14 11:34:35;;;;;;;45.55;34.28;;;11.90;46.80;;;;;;5032958;28;20034;-80
2022/01/14 11:37:05;;;;;;;32.15;24.92;;;11.60;43.80;;;;;;5032857;28;20072;-79
2022/01/14 11:39:35;;;;;;;31.48;25.75;;;11.20;45.40;;;;;;5032556;28;20044;-80
2022/01/14 11:42:08;;;;;;;33.42;29.08;;;11.60;46.30;;;;;;5033080;28;20553;-80
2022/01/14 11:44:47;;;;;;;34.45;29.75;;;12.00;48.50;;;;;;5035166;28;20049;-80
2022/01/14 11:47:25;;;;;;;37.85;29.75;;;12.60;48.80;;;;;;5036291;28;20072;-80
2022/01/14 11:49:52;;;;;;;31.00;27.17;;;13.10;43.90;;;;;;5018593;28;20037;-79
2022/01/14 11:52:42;;;;;;;36.60;28.80;;;13.40;46.60;;;;;;5036193;28;20473;-80
2022/01/14 11:55:23;;;;;;;36.92;30.90;;;14.00;42.20;;;;;;5035580;28;20040;-81
2022/01/14 11:57:50;;;;;;;;;;;14.10;43.40;;;;;;5016192;28;20393;-81
2022/01/14 12:00:27;;;;;;;34.85;28.48;;;15.30;43.10;;;;;;5034870;28;19916;-81
2022/01/14 12:02:55;;;;;;;34.20;28.63;;;16.60;41.20;;;;;;5034101;28;20038;-80
2022/01/14 12:05:22;;;;;;;43.88;36.05;;;17.80;38.20;;;;;;5035383;28;20049;-81
2022/01/14 12:08:03;;;;;;;40.83;30.05;;;18.00;34.10;;;;;;5035390;28;20033;-78
2022/01/14 12:10:35;;;;;;;35.03;28.50;;;18.40;36.30;;;;;;5032593;28;20133;-78
2022/01/14 12:13:22;;;;;;;31.70;28.17;;;18.90;34.00;;;;;;5034828;28;20064;-78
2022/01/14 12:16:00;;;;;;;35.75;30.35;;;19.30;34.40;;;;;;5028755;28;20041;-78
2022/01/14 12:18:57;;;;;;;32.55;28.92;;;19.70;31.50;;;;;;5034917;28;20040;-78
2022/01/14 12:21:37;;;;;;;34.78;30.20;;;19.50;32.00;;;;;;5035025;28;20127;-78
2022/01/14 12:24:16;;;;;;;38.15;31.25;;;19.90;32.50;;;;;;5017253;28;20120;-78
2022/01/14 12:27:11;;;;;;;34.95;30.83;;;20.60;32.40;;;;;;5017328;28;20037;-78
2022/01/14 12:29:37;;;;;;;34.70;28.02;;;21.10;31.30;;;;;;5034028;28;20498;-78
2022/01/14 12:32:04;;;;;;;35.35;31.40;;;21.40;29.70;;;;;;5035470;28;20079;-78
2022/01/14 12:34:55;;;;;;;36.75;31.27;;;21.60;29.60;;;;;;5034274;28;20064;-78
2022/01/14 12:37:35;;;;;;;38.15;33.83;;;21.60;29.50;;;;;;5034089;28;20029;-77
2022/01/14 12:40:12;;;;;;;;;;;21.60;30.70;;;;;;5034719;28;20036;-78
2022/01/14 12:42:39;;;;;;;40.45;34.30;;;21.60;31.60;;;;;;5032490;28;19924;-78
2022/01/14 12:45:07;;;;;;;43.78;38.55;;;21.50;32.40;;;;;;5029064;28;20041;-77
2022/01/14 12:47:39;;;;;;;44.22;36.22;;;21.40;32.50;;;;;;5034815;28;20069;-78
2022/01/14 12:50:11;;;;;;;42.78;36.10;;;21.30;32.70;;;;;;5016902;28;20492;-77
2022/01/14 12:52:48;;;;;;;44.20;35.40;;;21.00;33.20;;;;;;5032565;28;20033;-77
2022/01/14 12:55:26;;;;;;;46.38;36.05;;;20.90;33.70;;;;;;5032656;28;20048;-78
2022/01/14 12:57:57;;;;;;;;;;;20.70;34.10;;;;;;4996658;28;20048;-76
2022/01/14 13:00:23;;;;;;;45.60;34.97;;;20.60;34.30;;;;;;5029874;28;20000;-77
2022/01/14 13:02:49;;;;;;;42.17;36.00;;;20.50;34.30;;;;;;5034046;28;20038;-79
2022/01/14 13:05:19;;;;;;;43.85;36.47;;;20.50;34.40;;;;;;5034181;28;20091;-78
2022/01/14 13:07:46;;;;;;;42.63;36.88;;;20.50;34.30;;;;;;5016447;28;20056;-87
2022/01/14 13:10:13;;;;;;;49.50;37.97;;;20.60;34.10;;;;;;5034137;28;20048;-79
2022/01/14 13:12:41;;;;;;;43.50;38.40;;;20.70;33.60;;;;;;5034133;28;20413;-80
2022/01/14 13:15:09;;;;;;;47.63;38.20;;;20.70;33.60;;;;;;5014885;28;20038;-78
2022/01/14 13:17:38;;;;;;;45.85;38.70;;;20.80;33.80;;;;;;5031812;28;20080;-78
2022/01/14 13:20:17;;;;;;;43.42;37.50;;;20.90;33.90;;;;;;5013913;28;20033;-78
2022/01/14 13:22:45;;;;;;;43.67;38.03;;;21.00;33.20;;;;;;5030292;28;20084;-78
2022/01/14 13:25:13;;;;;;;47.75;39.72;;;21.00;33.30;;;;;;5029208;28;20128;-78
2022/01/14 13:27:45;;;;;;;43.35;38.42;;;20.90;33.60;;;;;;5033528;28;20037;-78
2022/01/14 13:30:23;;;;;;;46.28;38.50;;;20.80;33.60;;;;;;5020163;28;20128;-79
2022/01/14 13:32:57;;;;;;;46.45;37.83;;;20.60;34.40;;;;;;5032038;28;20041;-78
2022/01/14 13:35:30;;;;;;;42.20;37.22;;;20.00;34.60;;;;;;5033202;28;20478;-78
2022/01/14 13:37:59;;;;;;;45.70;38.42;;;19.40;35.00;;;;;;5015597;28;20053;-78
2022/01/14 13:40:29;;;;;;;46.63;39.08;;;18.90;36.30;;;;;;5033685;28;20038;-80
2022/01/14 13:43:13;;;;;;;47.85;39.10;;;18.30;36.80;;;;;;5015362;28;20041;-80
2022/01/14 13:45:43;;;;;;;44.78;37.35;;;17.80;37.80;;;;;;5034067;28;20034;-79
2022/01/14 13:48:19;;;;;;;43.90;35.95;;;17.30;38.70;;;;;;5034103;28;20033;-79
2022/01/14 13:50:46;;;;;;;48.00;37.05;;;16.90;39.90;;;;;;5015390;28;20034;-79
2022/01/14 13:53:15;;;;;;;56.22;38.05;;;16.50;41.00;;;;;;5031825;28;20038;-79
2022/01/14 13:55:50;;;;;;;49.63;37.55;;;16.20;41.80;;;;;;5032253;28;20038;-80
2022/01/14 13:58:25;;;;;;;52.33;37.05;;;15.90;42.50;;;;;;5033287;28;20073;-79
2022/01/14 14:00:54;;;;;;;44.08;36.33;;;15.60;43.10;;;;;;5031128;28;20515;-78
2022/01/14 14:03:46;;;;;;;43.85;36.42;;;15.40;43.90;;;;;;5033609;28;20037;-80
2022/01/14 14:06:21;;;;;;;45.10;35.28;;;15.20;44.70;;;;;;5025054;28;20033;-79
2022/01/14 14:17:03;;;;;;;40.20;32.42;;;14.40;46.90;;;;;;5032747;28;20153;-80
2022/01/14 14:19:49;;;;;;;43.15;33.47;;;14.20;47.00;;;;;;5032370;28;20113;-80
2022/01/14 14:22:20;;;;;;;41.25;32.90;;;14.10;47.20;;;;;;5032292;28;20490;-80
2022/01/14 14:24:55;;;;;;;;;;;14.10;47.60;;;;;;5033100;28;20087;-79
2022/01/14 14:27:21;;;;;;;40.63;33.38;;;14.00;47.60;;;;;;5032609;28;19908;-81
2022/01/14 14:29:53;;;;;;;44.75;33.80;;;13.90;47.80;;;;;;5032745;28;20030;-79
2022/01/14 14:32:21;;;;;;;47.42;35.38;;;13.90;48.00;;;;;;5032029;28;20056;-80
2022/01/14 14:34:47;;;;;;;39.08;32.88;;;13.90;48.00;;;;;;5027242;28;20513;-79
2022/01/14 14:37:13;;;;;;;45.90;36.20;;;13.70;48.40;;;;;;5031698;28;20128;-79
2022/01/14 14:39:39;;;;;;;37.95;33.40;;;13.70;48.50;;;;;;5032185;28;20108;-79
2022/01/14 14:42:05;;;;;;;40.83;33.47;;;13.60;48.60;;;;;;5032808;28;20038;-79
2022/01/14 14:44:30;;;;;;;44.40;33.80;;;13.60;48.70;;;;;;5014246;28;20041;-78